sensor_id;sensor_type;location;lat;lon;timestamp;P1;durP1;ratioP1;P2;durP2;ratioP2
23628;SDS011;11991;57.150;-2.134;2023-07-28T00:01:07;1.48;;;1.08;;
23628;SDS011;11991;57.150;-2.134;2023-07-28T00:03:34;1.67;;;1.27;;
23628;SDS011;11991;57.150;-2.134;2023-07-28T00:06:01;2.80;;;1.75;;
23628;SDS011;11991;57.150;-2.134;2023-07-28T00:08:29;1.63;;;1.23;;
23628;SDS011;11991;57.150;-2.134;2023-07-28T00:10:56;2.50;;;1.70;;
23628;SDS011;11991;57.150;-2.134;2023-07-28T00:13:24;2.83;;;1.70;;
23628;SDS011;11991;57.150;-2.134;2023-07-28T00:15:51;3.30;;;1.67;;
23628;SDS011;11991;57.150;-2.134;2023-07-28T00:18:18;2.95;;;1.80;;
23628;SDS011;11991;57.150;-2.134;2023-07-28T00:20:47;3.13;;;1.90;;
23628;SDS011;11991;57.150;-2.134;2023-07-28T00:23:14;1.80;;;1.33;;
23628;SDS011;11991;57.150;-2.134;2023-07-28T00:25:41;3.00;;;1.80;;
23628;SDS011;11991;57.150;-2.134;2023-07-28T00:28:09;1.67;;;1.30;;
23628;SDS011;11991;57.150;-2.134;2023-07-28T00:30:36;2.10;;;1.45;;
23628;SDS011;11991;57.150;-2.134;2023-07-28T00:33:03;1.88;;;1.45;;
23628;SDS011;11991;57.150;-2.134;2023-07-28T00:35:30;2.17;;;1.50;;
23628;SDS011;11991;57.150;-2.134;2023-07-28T00:37:57;2.13;;;1.50;;
23628;SDS011;11991;57.150;-2.134;2023-07-28T00:40:25;2.10;;;1.30;;
23628;SDS011;11991;57.150;-2.134;2023-07-28T00:42:52;2.63;;;1.77;;
23628;SDS011;11991;57.150;-2.134;2023-07-28T00:45:19;1.67;;;1.30;;
23628;SDS011;11991;57.150;-2.134;2023-07-28T00:47:48;1.98;;;1.40;;
23628;SDS011;11991;57.150;-2.134;2023-07-28T00:50:15;2.00;;;1.40;;
23628;SDS011;11991;57.150;-2.134;2023-07-28T00:52:42;1.23;;;1.00;;
23628;SDS011;11991;57.150;-2.134;2023-07-28T00:55:09;2.33;;;1.40;;
23628;SDS011;11991;57.150;-2.134;2023-07-28T00:57:37;2.80;;;1.83;;
23628;SDS011;11991;57.150;-2.134;2023-07-28T01:00:06;2.50;;;1.30;;
23628;SDS011;11991;57.150;-2.134;2023-07-28T01:02:33;2.08;;;1.48;;
23628;SDS011;11991;57.150;-2.134;2023-07-28T01:05:01;1.60;;;1.23;;
23628;SDS011;11991;57.150;-2.134;2023-07-28T01:10:28;1.50;;;1.33;;
23628;SDS011;11991;57.150;-2.134;2023-07-28T01:12:58;2.03;;;1.25;;
23628;SDS011;11991;57.150;-2.134;2023-07-28T01:15:26;1.48;;;1.05;;
23628;SDS011;11991;57.150;-2.134;2023-07-28T01:17:53;2.17;;;1.52;;
23628;SDS011;11991;57.150;-2.134;2023-07-28T01:20:21;1.67;;;1.10;;
23628;SDS011;11991;57.150;-2.134;2023-07-28T01:28:35;1.52;;;1.10;;
23628;SDS011;11991;57.150;-2.134;2023-07-28T01:31:04;1.00;;;0.90;;
23628;SDS011;11991;57.150;-2.134;2023-07-28T01:33:33;1.80;;;1.25;;
23628;SDS011;11991;57.150;-2.134;2023-07-28T01:36:00;1.27;;;1.00;;
23628;SDS011;11991;57.150;-2.134;2023-07-28T01:38:28;1.63;;;1.15;;
23628;SDS011;11991;57.150;-2.134;2023-07-28T01:40:55;1.67;;;1.25;;
23628;SDS011;11991;57.150;-2.134;2023-07-28T01:43:22;1.90;;;1.35;;
23628;SDS011;11991;57.150;-2.134;2023-07-28T01:45:49;1.48;;;0.90;;
23628;SDS011;11991;57.150;-2.134;2023-07-28T01:48:16;2.35;;;1.65;;
23628;SDS011;11991;57.150;-2.134;2023-07-28T01:50:44;1.27;;;0.98;;
23628;SDS011;11991;57.150;-2.134;2023-07-28T01:53:11;0.90;;;0.80;;
23628;SDS011;11991;57.150;-2.134;2023-07-28T01:55:38;1.38;;;1.13;;
23628;SDS011;11991;57.150;-2.134;2023-07-28T01:58:05;1.88;;;1.08;;
23628;SDS011;11991;57.150;-2.134;2023-07-28T02:00:32;1.20;;;1.00;;
23628;SDS011;11991;57.150;-2.134;2023-07-28T02:03:00;1.67;;;1.52;;
23628;SDS011;11991;57.150;-2.134;2023-07-28T02:05:29;2.33;;;1.70;;
23628;SDS011;11991;57.150;-2.134;2023-07-28T02:07:57;2.05;;;1.50;;
23628;SDS011;11991;57.150;-2.134;2023-07-28T02:10:28;1.60;;;1.30;;
23628;SDS011;11991;57.150;-2.134;2023-07-28T02:12:56;1.98;;;1.45;;
23628;SDS011;11991;57.150;-2.134;2023-07-28T02:15:23;2.22;;;1.33;;
23628;SDS011;11991;57.150;-2.134;2023-07-28T02:17:50;2.30;;;1.40;;
23628;SDS011;11991;57.150;-2.134;2023-07-28T02:20:17;2.03;;;1.52;;
23628;SDS011;11991;57.150;-2.134;2023-07-28T02:22:45;1.60;;;1.20;;
23628;SDS011;11991;57.150;-2.134;2023-07-28T02:25:12;1.50;;;1.05;;
23628;SDS011;11991;57.150;-2.134;2023-07-28T02:27:39;2.17;;;1.58;;
23628;SDS011;11991;57.150;-2.134;2023-07-28T02:30:06;1.83;;;1.27;;
23628;SDS011;11991;57.150;-2.134;2023-07-28T02:32:34;1.38;;;1.13;;
23628;SDS011;11991;57.150;-2.134;2023-07-28T02:35:02;1.90;;;1.52;;
23628;SDS011;11991;57.150;-2.134;2023-07-28T02:37:29;1.88;;;1.35;;
23628;SDS011;11991;57.150;-2.134;2023-07-28T02:39:56;1.38;;;1.05;;
23628;SDS011;11991;57.150;-2.134;2023-07-28T02:42:23;1.65;;;1.30;;
23628;SDS011;11991;57.150;-2.134;2023-07-28T02:44:51;2.55;;;1.50;;
23628;SDS011;11991;57.150;-2.134;2023-07-28T02:47:18;1.73;;;1.40;;
23628;SDS011;11991;57.150;-2.134;2023-07-28T02:49:46;1.50;;;1.25;;
23628;SDS011;11991;57.150;-2.134;2023-07-28T02:52:13;1.70;;;1.50;;
23628;SDS011;11991;57.150;-2.134;2023-07-28T02:54:40;1.88;;;1.33;;
23628;SDS011;11991;57.150;-2.134;2023-07-28T02:57:07;1.73;;;1.40;;
23628;SDS011;11991;57.150;-2.134;2023-07-28T02:59:36;1.55;;;1.38;;
23628;SDS011;11991;57.150;-2.134;2023-07-28T03:02:03;2.25;;;1.38;;
23628;SDS011;11991;57.150;-2.134;2023-07-28T03:04:30;1.90;;;1.40;;
23628;SDS011;11991;57.150;-2.134;2023-07-28T03:07:24;2.30;;;1.75;;
23628;SDS011;11991;57.150;-2.134;2023-07-28T03:09:57;1.80;;;1.30;;
23628;SDS011;11991;57.150;-2.134;2023-07-28T03:12:25;2.85;;;1.60;;
23628;SDS011;11991;57.150;-2.134;2023-07-28T03:14:52;1.80;;;1.40;;
23628;SDS011;11991;57.150;-2.134;2023-07-28T03:17:20;2.22;;;1.40;;
23628;SDS011;11991;57.150;-2.134;2023-07-28T03:19:47;1.67;;;1.50;;
23628;SDS011;11991;57.150;-2.134;2023-07-28T03:22:14;2.33;;;1.55;;
23628;SDS011;11991;57.150;-2.134;2023-07-28T03:24:41;2.25;;;1.55;;
23628;SDS011;11991;57.150;-2.134;2023-07-28T03:27:09;2.15;;;1.52;;
23628;SDS011;11991;57.150;-2.134;2023-07-28T03:29:36;1.92;;;1.45;;
23628;SDS011;11991;57.150;-2.134;2023-07-28T03:32:04;1.35;;;1.17;;
23628;SDS011;11991;57.150;-2.134;2023-07-28T03:34:31;1.50;;;1.33;;
23628;SDS011;11991;57.150;-2.134;2023-07-28T03:37:01;2.13;;;1.60;;
23628;SDS011;11991;57.150;-2.134;2023-07-28T03:39:29;1.48;;;1.08;;
23628;SDS011;11991;57.150;-2.134;2023-07-28T03:41:58;1.67;;;1.20;;
23628;SDS011;11991;57.150;-2.134;2023-07-28T03:44:26;1.83;;;1.23;;
23628;SDS011;11991;57.150;-2.134;2023-07-28T03:46:53;2.58;;;1.83;;
23628;SDS011;11991;57.150;-2.134;2023-07-28T03:49:20;1.55;;;1.27;;
23628;SDS011;11991;57.150;-2.134;2023-07-28T03:51:48;1.25;;;1.05;;
23628;SDS011;11991;57.150;-2.134;2023-07-28T03:54:15;2.08;;;1.40;;
23628;SDS011;11991;57.150;-2.134;2023-07-28T03:56:42;1.50;;;1.10;;
23628;SDS011;11991;57.150;-2.134;2023-07-28T03:59:09;1.63;;;1.33;;
23628;SDS011;11991;57.150;-2.134;2023-07-28T04:01:36;1.42;;;1.08;;
23628;SDS011;11991;57.150;-2.134;2023-07-28T04:04:03;2.30;;;1.67;;
23628;SDS011;11991;57.150;-2.134;2023-07-28T04:09:11;1.95;;;1.40;;
23628;SDS011;11991;57.150;-2.134;2023-07-28T04:11:39;1.67;;;1.20;;
23628;SDS011;11991;57.150;-2.134;2023-07-28T04:14:07;2.10;;;1.45;;
23628;SDS011;11991;57.150;-2.134;2023-07-28T04:16:34;1.73;;;1.35;;
23628;SDS011;11991;57.150;-2.134;2023-07-28T04:19:02;1.55;;;1.23;;
23628;SDS011;11991;57.150;-2.134;2023-07-28T04:21:29;3.38;;;1.35;;
23628;SDS011;11991;57.150;-2.134;2023-07-28T04:23:56;2.88;;;1.70;;
23628;SDS011;11991;57.150;-2.134;2023-07-28T04:26:24;1.73;;;1.40;;
23628;SDS011;11991;57.150;-2.134;2023-07-28T04:28:58;1.88;;;1.30;;
23628;SDS011;11991;57.150;-2.134;2023-07-28T04:31:26;1.40;;;1.30;;
23628;SDS011;11991;57.150;-2.134;2023-07-28T04:33:57;2.22;;;1.27;;
23628;SDS011;11991;57.150;-2.134;2023-07-28T04:36:36;2.83;;;1.20;;
23628;SDS011;11991;57.150;-2.134;2023-07-28T04:39:04;2.03;;;1.42;;
23628;SDS011;11991;57.150;-2.134;2023-07-28T04:41:31;1.23;;;0.90;;
23628;SDS011;11991;57.150;-2.134;2023-07-28T04:43:58;1.60;;;1.30;;
23628;SDS011;11991;57.150;-2.134;2023-07-28T04:46:29;1.45;;;1.13;;
23628;SDS011;11991;57.150;-2.134;2023-07-28T04:48:56;1.83;;;1.30;;
23628;SDS011;11991;57.150;-2.134;2023-07-28T04:51:46;1.38;;;1.20;;
23628;SDS011;11991;57.150;-2.134;2023-07-28T04:54:36;1.67;;;1.35;;
23628;SDS011;11991;57.150;-2.134;2023-07-28T04:57:03;1.45;;;1.27;;
23628;SDS011;11991;57.150;-2.134;2023-07-28T04:59:33;1.00;;;0.90;;
23628;SDS011;11991;57.150;-2.134;2023-07-28T05:02:00;1.42;;;1.20;;
23628;SDS011;11991;57.150;-2.134;2023-07-28T05:04:27;1.92;;;1.00;;
23628;SDS011;11991;57.150;-2.134;2023-07-28T05:06:55;1.00;;;0.90;;
23628;SDS011;11991;57.150;-2.134;2023-07-28T05:09:22;1.60;;;1.20;;
23628;SDS011;11991;57.150;-2.134;2023-07-28T05:11:49;1.50;;;1.10;;
23628;SDS011;11991;57.150;-2.134;2023-07-28T05:14:16;2.28;;;1.67;;
23628;SDS011;11991;57.150;-2.134;2023-07-28T05:16:43;1.83;;;1.25;;
23628;SDS011;11991;57.150;-2.134;2023-07-28T05:19:11;2.20;;;1.60;;
23628;SDS011;11991;57.150;-2.134;2023-07-28T05:21:38;1.60;;;1.30;;
23628;SDS011;11991;57.150;-2.134;2023-07-28T05:24:07;1.42;;;1.20;;
23628;SDS011;11991;57.150;-2.134;2023-07-28T05:26:35;1.80;;;1.48;;
23628;SDS011;11991;57.150;-2.134;2023-07-28T05:29:02;3.88;;;2.03;;
23628;SDS011;11991;57.150;-2.134;2023-07-28T05:31:29;1.50;;;1.13;;
23628;SDS011;11991;57.150;-2.134;2023-07-28T05:33:58;2.08;;;1.20;;
23628;SDS011;11991;57.150;-2.134;2023-07-28T05:36:25;1.98;;;1.50;;
23628;SDS011;11991;57.150;-2.134;2023-07-28T05:38:57;1.48;;;1.20;;
23628;SDS011;11991;57.150;-2.134;2023-07-28T05:41:33;2.28;;;1.52;;
23628;SDS011;11991;57.150;-2.134;2023-07-28T05:44:01;3.45;;;1.55;;
23628;SDS011;11991;57.150;-2.134;2023-07-28T05:46:29;2.15;;;1.42;;
23628;SDS011;11991;57.150;-2.134;2023-07-28T05:48:57;1.88;;;1.38;;
23628;SDS011;11991;57.150;-2.134;2023-07-28T05:51:24;2.45;;;1.75;;
23628;SDS011;11991;57.150;-2.134;2023-07-28T05:53:51;2.03;;;1.50;;
23628;SDS011;11991;57.150;-2.134;2023-07-28T05:56:19;2.65;;;1.67;;
23628;SDS011;11991;57.150;-2.134;2023-07-28T05:58:47;2.50;;;1.60;;
23628;SDS011;11991;57.150;-2.134;2023-07-28T06:01:16;2.97;;;2.10;;
23628;SDS011;11991;57.150;-2.134;2023-07-28T06:04:03;6.47;;;2.70;;
23628;SDS011;11991;57.150;-2.134;2023-07-28T06:06:37;4.68;;;2.45;;
23628;SDS011;11991;57.150;-2.134;2023-07-28T06:09:04;4.75;;;2.70;;
23628;SDS011;11991;57.150;-2.134;2023-07-28T06:11:33;3.33;;;2.15;;
23628;SDS011;11991;57.150;-2.134;2023-07-28T06:14:02;3.90;;;2.03;;
23628;SDS011;11991;57.150;-2.134;2023-07-28T06:16:33;2.60;;;1.60;;
23628;SDS011;11991;57.150;-2.134;2023-07-28T06:19:00;2.05;;;1.42;;
23628;SDS011;11991;57.150;-2.134;2023-07-28T06:21:27;3.15;;;2.17;;
23628;SDS011;11991;57.150;-2.134;2023-07-28T06:23:55;4.20;;;2.72;;
23628;SDS011;11991;57.150;-2.134;2023-07-28T06:26:23;3.38;;;2.38;;
23628;SDS011;11991;57.150;-2.134;2023-07-28T06:28:50;5.80;;;1.92;;
23628;SDS011;11991;57.150;-2.134;2023-07-28T06:31:17;3.72;;;2.50;;
23628;SDS011;11991;57.150;-2.134;2023-07-28T06:33:46;4.35;;;2.33;;
23628;SDS011;11991;57.150;-2.134;2023-07-28T06:36:14;3.20;;;2.10;;
23628;SDS011;11991;57.150;-2.134;2023-07-28T06:38:41;2.67;;;1.70;;
23628;SDS011;11991;57.150;-2.134;2023-07-28T06:41:10;3.45;;;1.80;;
23628;SDS011;11991;57.150;-2.134;2023-07-28T06:43:37;4.53;;;2.67;;
23628;SDS011;11991;57.150;-2.134;2023-07-28T06:46:06;3.42;;;2.25;;
23628;SDS011;11991;57.150;-2.134;2023-07-28T06:48:33;3.15;;;2.03;;
23628;SDS011;11991;57.150;-2.134;2023-07-28T06:51:00;2.17;;;1.52;;
23628;SDS011;11991;57.150;-2.134;2023-07-28T06:53:28;4.82;;;2.47;;
23628;SDS011;11991;57.150;-2.134;2023-07-28T06:55:55;2.08;;;1.48;;
23628;SDS011;11991;57.150;-2.134;2023-07-28T06:58:22;1.58;;;1.27;;
23628;SDS011;11991;57.150;-2.134;2023-07-28T07:00:49;2.22;;;1.60;;
23628;SDS011;11991;57.150;-2.134;2023-07-28T07:03:16;3.15;;;2.25;;
23628;SDS011;11991;57.150;-2.134;2023-07-28T07:05:44;2.85;;;2.10;;
23628;SDS011;11991;57.150;-2.134;2023-07-28T07:08:11;4.05;;;2.10;;
23628;SDS011;11991;57.150;-2.134;2023-07-28T07:10:38;2.60;;;1.77;;
23628;SDS011;11991;57.150;-2.134;2023-07-28T07:13:05;3.22;;;1.98;;
23628;SDS011;11991;57.150;-2.134;2023-07-28T07:15:36;2.17;;;1.65;;
23628;SDS011;11991;57.150;-2.134;2023-07-28T07:18:03;3.28;;;2.03;;
23628;SDS011;11991;57.150;-2.134;2023-07-28T07:20:33;1.70;;;1.35;;
23628;SDS011;11991;57.150;-2.134;2023-07-28T07:23:01;1.27;;;1.02;;
23628;SDS011;11991;57.150;-2.134;2023-07-28T07:25:28;2.13;;;1.55;;
23628;SDS011;11991;57.150;-2.134;2023-07-28T07:27:55;2.25;;;1.42;;
23628;SDS011;11991;57.150;-2.134;2023-07-28T07:30:23;2.03;;;1.25;;
23628;SDS011;11991;57.150;-2.134;2023-07-28T07:32:50;1.20;;;1.10;;
23628;SDS011;11991;57.150;-2.134;2023-07-28T07:35:17;1.50;;;1.20;;
23628;SDS011;11991;57.150;-2.134;2023-07-28T07:37:44;2.00;;;1.40;;
23628;SDS011;11991;57.150;-2.134;2023-07-28T07:40:12;1.90;;;1.40;;
23628;SDS011;11991;57.150;-2.134;2023-07-28T07:42:47;1.75;;;1.23;;
23628;SDS011;11991;57.150;-2.134;2023-07-28T07:45:15;1.10;;;1.00;;
23628;SDS011;11991;57.150;-2.134;2023-07-28T07:47:42;2.38;;;1.60;;
23628;SDS011;11991;57.150;-2.134;2023-07-28T07:50:10;1.50;;;1.30;;
23628;SDS011;11991;57.150;-2.134;2023-07-28T07:52:38;1.90;;;1.30;;
23628;SDS011;11991;57.150;-2.134;2023-07-28T07:55:08;1.92;;;1.30;;
23628;SDS011;11991;57.150;-2.134;2023-07-28T07:57:38;1.40;;;1.20;;
23628;SDS011;11991;57.150;-2.134;2023-07-28T08:00:06;1.27;;;1.17;;
23628;SDS011;11991;57.150;-2.134;2023-07-28T08:02:40;1.48;;;1.17;;
23628;SDS011;11991;57.150;-2.134;2023-07-28T08:05:11;2.28;;;1.50;;
23628;SDS011;11991;57.150;-2.134;2023-07-28T08:07:39;1.85;;;1.50;;
23628;SDS011;11991;57.150;-2.134;2023-07-28T08:10:07;1.20;;;1.10;;
23628;SDS011;11991;57.150;-2.134;2023-07-28T08:12:34;1.50;;;1.30;;
23628;SDS011;11991;57.150;-2.134;2023-07-28T08:15:01;1.73;;;1.40;;
23628;SDS011;11991;57.150;-2.134;2023-07-28T08:17:28;1.30;;;1.20;;
23628;SDS011;11991;57.150;-2.134;2023-07-28T08:19:56;2.60;;;1.67;;
23628;SDS011;11991;57.150;-2.134;2023-07-28T08:22:23;1.33;;;1.20;;
23628;SDS011;11991;57.150;-2.134;2023-07-28T08:24:50;1.95;;;1.35;;
23628;SDS011;11991;57.150;-2.134;2023-07-28T08:27:17;2.25;;;1.23;;
23628;SDS011;11991;57.150;-2.134;2023-07-28T08:29:44;1.42;;;1.25;;
23628;SDS011;11991;57.150;-2.134;2023-07-28T08:32:11;1.10;;;1.00;;
23628;SDS011;11991;57.150;-2.134;2023-07-28T08:34:38;1.33;;;1.00;;
23628;SDS011;11991;57.150;-2.134;2023-07-28T08:37:05;1.08;;;0.98;;
23628;SDS011;11991;57.150;-2.134;2023-07-28T08:39:33;1.10;;;1.00;;
23628;SDS011;11991;57.150;-2.134;2023-07-28T08:42:00;1.05;;;0.90;;
23628;SDS011;11991;57.150;-2.134;2023-07-28T08:44:32;0.80;;;0.80;;
23628;SDS011;11991;57.150;-2.134;2023-07-28T08:47:01;1.90;;;1.50;;
23628;SDS011;11991;57.150;-2.134;2023-07-28T08:49:32;2.33;;;1.60;;
23628;SDS011;11991;57.150;-2.134;2023-07-28T08:52:02;3.22;;;2.15;;
23628;SDS011;11991;57.150;-2.134;2023-07-28T08:54:30;2.55;;;1.85;;
23628;SDS011;11991;57.150;-2.134;2023-07-28T08:56:58;4.13;;;2.47;;
23628;SDS011;11991;57.150;-2.134;2023-07-28T08:59:25;3.60;;;2.42;;
23628;SDS011;11991;57.150;-2.134;2023-07-28T09:01:55;3.55;;;2.60;;
23628;SDS011;11991;57.150;-2.134;2023-07-28T09:04:26;1.77;;;1.55;;
23628;SDS011;11991;57.150;-2.134;2023-07-28T09:06:53;2.28;;;1.90;;
23628;SDS011;11991;57.150;-2.134;2023-07-28T09:09:21;4.22;;;2.28;;
23628;SDS011;11991;57.150;-2.134;2023-07-28T09:11:50;2.47;;;2.22;;
23628;SDS011;11991;57.150;-2.134;2023-07-28T09:14:19;2.22;;;1.92;;
23628;SDS011;11991;57.150;-2.134;2023-07-28T09:16:47;1.73;;;1.63;;
23628;SDS011;11991;57.150;-2.134;2023-07-28T09:19:15;2.30;;;1.50;;
23628;SDS011;11991;57.150;-2.134;2023-07-28T09:21:43;2.58;;;1.42;;
23628;SDS011;11991;57.150;-2.134;2023-07-28T09:24:13;1.95;;;1.38;;
23628;SDS011;11991;57.150;-2.134;2023-07-28T09:26:41;3.47;;;1.65;;
23628;SDS011;11991;57.150;-2.134;2023-07-28T09:29:17;2.22;;;1.55;;
23628;SDS011;11991;57.150;-2.134;2023-07-28T09:31:47;2.15;;;1.27;;
23628;SDS011;11991;57.150;-2.134;2023-07-28T09:34:25;1.20;;;1.10;;
23628;SDS011;11991;57.150;-2.134;2023-07-28T09:36:57;1.70;;;1.05;;
23628;SDS011;11991;57.150;-2.134;2023-07-28T09:39:24;1.75;;;1.17;;
23628;SDS011;11991;57.150;-2.134;2023-07-28T09:41:52;1.13;;;1.02;;
23628;SDS011;11991;57.150;-2.134;2023-07-28T09:44:23;1.48;;;1.00;;
23628;SDS011;11991;57.150;-2.134;2023-07-28T09:46:52;1.45;;;1.00;;
23628;SDS011;11991;57.150;-2.134;2023-07-28T09:49:27;1.17;;;1.05;;
23628;SDS011;11991;57.150;-2.134;2023-07-28T09:52:04;1.30;;;1.02;;
23628;SDS011;11991;57.150;-2.134;2023-07-28T09:54:38;1.25;;;1.15;;
23628;SDS011;11991;57.150;-2.134;2023-07-28T09:57:18;0.80;;;0.80;;
23628;SDS011;11991;57.150;-2.134;2023-07-28T09:59:47;1.67;;;1.17;;
23628;SDS011;11991;57.150;-2.134;2023-07-28T10:02:16;0.80;;;0.80;;
23628;SDS011;11991;57.150;-2.134;2023-07-28T10:04:44;2.17;;;1.00;;
23628;SDS011;11991;57.150;-2.134;2023-07-28T10:07:13;1.25;;;0.90;;
23628;SDS011;11991;57.150;-2.134;2023-07-28T10:09:40;1.27;;;0.70;;
23628;SDS011;11991;57.150;-2.134;2023-07-28T10:12:17;0.68;;;0.68;;
23628;SDS011;11991;57.150;-2.134;2023-07-28T10:15:01;0.65;;;0.63;;
23628;SDS011;11991;57.150;-2.134;2023-07-28T10:17:34;0.82;;;0.68;;
23628;SDS011;11991;57.150;-2.134;2023-07-28T10:20:04;0.90;;;0.63;;
23628;SDS011;11991;57.150;-2.134;2023-07-28T10:22:44;0.60;;;0.60;;
23628;SDS011;11991;57.150;-2.134;2023-07-28T10:25:11;0.60;;;0.60;;
23628;SDS011;11991;57.150;-2.134;2023-07-28T10:27:44;0.93;;;0.70;;
23628;SDS011;11991;57.150;-2.134;2023-07-28T10:30:14;0.60;;;0.60;;
23628;SDS011;11991;57.150;-2.134;2023-07-28T10:32:43;0.70;;;0.70;;
23628;SDS011;11991;57.150;-2.134;2023-07-28T10:37:39;0.73;;;0.70;;
23628;SDS011;11991;57.150;-2.134;2023-07-28T10:42:57;1.00;;;0.77;;
23628;SDS011;11991;57.150;-2.134;2023-07-28T10:45:26;1.08;;;0.73;;
23628;SDS011;11991;57.150;-2.134;2023-07-28T10:47:54;1.00;;;0.60;;
23628;SDS011;11991;57.150;-2.134;2023-07-28T10:50:22;0.80;;;0.80;;
23628;SDS011;11991;57.150;-2.134;2023-07-28T10:52:50;1.48;;;0.90;;
23628;SDS011;11991;57.150;-2.134;2023-07-28T10:55:19;0.68;;;0.55;;
23628;SDS011;11991;57.150;-2.134;2023-07-28T10:57:48;0.80;;;0.80;;
23628;SDS011;11991;57.150;-2.134;2023-07-28T11:00:18;0.77;;;0.77;;
23628;SDS011;11991;57.150;-2.134;2023-07-28T11:02:48;0.80;;;0.80;;
23628;SDS011;11991;57.150;-2.134;2023-07-28T11:05:24;1.15;;;0.70;;
23628;SDS011;11991;57.150;-2.134;2023-07-28T11:07:56;0.77;;;0.63;;
23628;SDS011;11991;57.150;-2.134;2023-07-28T11:10:27;0.73;;;0.60;;
23628;SDS011;11991;57.150;-2.134;2023-07-28T11:12:57;1.08;;;0.90;;
23628;SDS011;11991;57.150;-2.134;2023-07-28T11:15:31;0.88;;;0.73;;
23628;SDS011;11991;57.150;-2.134;2023-07-28T11:18:00;0.60;;;0.60;;
23628;SDS011;11991;57.150;-2.134;2023-07-28T11:20:29;0.60;;;0.60;;
23628;SDS011;11991;57.150;-2.134;2023-07-28T11:23:00;3.47;;;0.70;;
23628;SDS011;11991;57.150;-2.134;2023-07-28T11:25:32;1.48;;;0.55;;
23628;SDS011;11991;57.150;-2.134;2023-07-28T11:28:01;0.98;;;0.70;;
23628;SDS011;11991;57.150;-2.134;2023-07-28T11:30:29;1.08;;;0.60;;
23628;SDS011;11991;57.150;-2.134;2023-07-28T11:32:57;0.68;;;0.63;;
23628;SDS011;11991;57.150;-2.134;2023-07-28T11:35:25;0.40;;;0.40;;
23628;SDS011;11991;57.150;-2.134;2023-07-28T11:37:55;0.65;;;0.65;;
23628;SDS011;11991;57.150;-2.134;2023-07-28T11:40:23;1.83;;;0.90;;
23628;SDS011;11991;57.150;-2.134;2023-07-28T11:42:53;1.15;;;0.70;;
23628;SDS011;11991;57.150;-2.134;2023-07-28T11:45:21;0.60;;;0.60;;
23628;SDS011;11991;57.150;-2.134;2023-07-28T11:50:26;1.05;;;0.95;;
23628;SDS011;11991;57.150;-2.134;2023-07-28T11:53:00;1.17;;;0.98;;
23628;SDS011;11991;57.150;-2.134;2023-07-28T11:55:28;1.00;;;0.88;;
23628;SDS011;11991;57.150;-2.134;2023-07-28T11:57:56;1.95;;;1.40;;
23628;SDS011;11991;57.150;-2.134;2023-07-28T12:00:33;1.20;;;1.10;;
23628;SDS011;11991;57.150;-2.134;2023-07-28T12:03:06;1.05;;;0.90;;
23628;SDS011;11991;57.150;-2.134;2023-07-28T12:05:38;0.80;;;0.80;;
23628;SDS011;11991;57.150;-2.134;2023-07-28T12:08:09;1.08;;;0.98;;
23628;SDS011;11991;57.150;-2.134;2023-07-28T12:10:36;0.80;;;0.80;;
23628;SDS011;11991;57.150;-2.134;2023-07-28T12:13:07;0.85;;;0.80;;
23628;SDS011;11991;57.150;-2.134;2023-07-28T12:15:42;1.73;;;1.20;;
23628;SDS011;11991;57.150;-2.134;2023-07-28T12:18:12;1.10;;;1.00;;
23628;SDS011;11991;57.150;-2.134;2023-07-28T12:20:47;1.30;;;1.20;;
23628;SDS011;11991;57.150;-2.134;2023-07-28T12:23:17;1.77;;;1.35;;
23628;SDS011;11991;57.150;-2.134;2023-07-28T12:25:49;1.70;;;1.15;;
23628;SDS011;11991;57.150;-2.134;2023-07-28T12:28:17;1.50;;;1.40;;
23628;SDS011;11991;57.150;-2.134;2023-07-28T12:30:46;1.20;;;1.10;;
23628;SDS011;11991;57.150;-2.134;2023-07-28T12:33:16;1.10;;;1.00;;
23628;SDS011;11991;57.150;-2.134;2023-07-28T12:35:47;1.70;;;1.50;;
23628;SDS011;11991;57.150;-2.134;2023-07-28T12:38:16;1.60;;;1.50;;
23628;SDS011;11991;57.150;-2.134;2023-07-28T12:40:46;2.17;;;1.83;;
23628;SDS011;11991;57.150;-2.134;2023-07-28T12:43:16;2.00;;;1.50;;
23628;SDS011;11991;57.150;-2.134;2023-07-28T12:45:47;1.50;;;1.40;;
23628;SDS011;11991;57.150;-2.134;2023-07-28T12:48:17;1.40;;;1.30;;
23628;SDS011;11991;57.150;-2.134;2023-07-28T12:50:46;2.00;;;1.50;;
23628;SDS011;11991;57.150;-2.134;2023-07-28T12:53:14;2.20;;;1.58;;
23628;SDS011;11991;57.150;-2.134;2023-07-28T12:55:48;2.17;;;1.40;;
23628;SDS011;11991;57.150;-2.134;2023-07-28T12:58:19;1.73;;;1.33;;
23628;SDS011;11991;57.150;-2.134;2023-07-28T13:00:49;1.73;;;1.55;;
23628;SDS011;11991;57.150;-2.134;2023-07-28T13:03:22;1.65;;;1.23;;
23628;SDS011;11991;57.150;-2.134;2023-07-28T13:05:49;2.25;;;1.33;;
23628;SDS011;11991;57.150;-2.134;2023-07-28T13:08:16;1.38;;;1.17;;
23628;SDS011;11991;57.150;-2.134;2023-07-28T13:10:44;2.08;;;1.73;;
23628;SDS011;11991;57.150;-2.134;2023-07-28T13:13:14;1.33;;;1.20;;
23628;SDS011;11991;57.150;-2.134;2023-07-28T13:15:41;1.45;;;1.35;;
23628;SDS011;11991;57.150;-2.134;2023-07-28T13:18:08;1.45;;;1.27;;
23628;SDS011;11991;57.150;-2.134;2023-07-28T13:20:35;1.50;;;1.40;;
23628;SDS011;11991;57.150;-2.134;2023-07-28T13:23:03;1.40;;;1.30;;
23628;SDS011;11991;57.150;-2.134;2023-07-28T13:25:30;1.33;;;1.23;;
23628;SDS011;11991;57.150;-2.134;2023-07-28T13:27:57;1.50;;;1.40;;
23628;SDS011;11991;57.150;-2.134;2023-07-28T13:30:24;2.00;;;1.60;;
23628;SDS011;11991;57.150;-2.134;2023-07-28T13:32:55;2.30;;;1.48;;
23628;SDS011;11991;57.150;-2.134;2023-07-28T13:35:23;1.98;;;1.40;;
23628;SDS011;11991;57.150;-2.134;2023-07-28T13:37:51;2.90;;;1.80;;
23628;SDS011;11991;57.150;-2.134;2023-07-28T13:40:18;1.30;;;1.20;;
23628;SDS011;11991;57.150;-2.134;2023-07-28T13:42:46;1.30;;;1.20;;
23628;SDS011;11991;57.150;-2.134;2023-07-28T13:45:13;2.58;;;1.73;;
23628;SDS011;11991;57.150;-2.134;2023-07-28T13:47:41;1.50;;;1.40;;
23628;SDS011;11991;57.150;-2.134;2023-07-28T13:50:08;2.20;;;1.85;;
23628;SDS011;11991;57.150;-2.134;2023-07-28T13:52:35;1.95;;;1.75;;
23628;SDS011;11991;57.150;-2.134;2023-07-28T13:55:03;1.50;;;1.40;;
23628;SDS011;11991;57.150;-2.134;2023-07-28T13:57:34;1.48;;;1.38;;
23628;SDS011;11991;57.150;-2.134;2023-07-28T14:00:02;1.58;;;1.48;;
23628;SDS011;11991;57.150;-2.134;2023-07-28T14:02:30;1.88;;;1.40;;
23628;SDS011;11991;57.150;-2.134;2023-07-28T14:04:57;3.38;;;1.83;;
23628;SDS011;11991;57.150;-2.134;2023-07-28T14:07:24;3.08;;;1.42;;
23628;SDS011;11991;57.150;-2.134;2023-07-28T14:09:51;1.92;;;1.30;;
23628;SDS011;11991;57.150;-2.134;2023-07-28T14:12:19;1.60;;;1.40;;
23628;SDS011;11991;57.150;-2.134;2023-07-28T14:14:46;2.90;;;2.20;;
23628;SDS011;11991;57.150;-2.134;2023-07-28T14:17:13;2.28;;;1.98;;
23628;SDS011;11991;57.150;-2.134;2023-07-28T14:19:40;1.60;;;1.50;;
23628;SDS011;11991;57.150;-2.134;2023-07-28T14:22:08;1.70;;;1.60;;
23628;SDS011;11991;57.150;-2.134;2023-07-28T14:24:35;2.80;;;1.70;;
23628;SDS011;11991;57.150;-2.134;2023-07-28T14:27:03;1.48;;;1.35;;
23628;SDS011;11991;57.150;-2.134;2023-07-28T14:29:31;1.85;;;1.73;;
23628;SDS011;11991;57.150;-2.134;2023-07-28T14:31:58;1.30;;;1.20;;
23628;SDS011;11991;57.150;-2.134;2023-07-28T14:34:25;1.73;;;1.63;;
23628;SDS011;11991;57.150;-2.134;2023-07-28T14:36:52;1.77;;;1.67;;
23628;SDS011;11991;57.150;-2.134;2023-07-28T14:39:19;1.30;;;1.20;;
23628;SDS011;11991;57.150;-2.134;2023-07-28T14:41:46;2.13;;;1.58;;
23628;SDS011;11991;57.150;-2.134;2023-07-28T14:44:13;2.05;;;1.27;;
23628;SDS011;11991;57.150;-2.134;2023-07-28T14:46:43;1.52;;;1.17;;
23628;SDS011;11991;57.150;-2.134;2023-07-28T14:49:10;1.90;;;1.50;;
23628;SDS011;11991;57.150;-2.134;2023-07-28T14:51:38;1.90;;;1.65;;
23628;SDS011;11991;57.150;-2.134;2023-07-28T14:54:05;1.55;;;1.23;;
23628;SDS011;11991;57.150;-2.134;2023-07-28T14:56:32;1.30;;;1.20;;
23628;SDS011;11991;57.150;-2.134;2023-07-28T14:58:59;1.30;;;1.20;;
23628;SDS011;11991;57.150;-2.134;2023-07-28T15:01:30;1.67;;;1.23;;